sensor_id;sensor_type;location;lat;lon;timestamp;P1;durP1;ratioP1;P2;durP2;ratioP2
66946;SDS011;53853;51.982;5.928;2022-07-01T00:01:14;14.15;;;12.82;;
66946;SDS011;53853;51.982;5.928;2022-07-01T00:03:44;11.43;;;10.32;;
66946;SDS011;53853;51.982;5.928;2022-07-01T00:06:17;10.37;;;9.33;;
66946;SDS011;53853;51.982;5.928;2022-07-01T00:08:47;13.70;;;12.40;;
66946;SDS011;53853;51.982;5.928;2022-07-01T00:11:17;15.05;;;13.27;;
66946;SDS011;53853;51.982;5.928;2022-07-01T00:13:47;15.18;;;13.68;;
66946;SDS011;53853;51.982;5.928;2022-07-01T00:16:19;13.77;;;12.48;;
66946;SDS011;53853;51.982;5.928;2022-07-01T00:18:49;11.95;;;10.50;;
66946;SDS011;53853;51.982;5.928;2022-07-01T00:21:19;11.38;;;10.27;;
66946;SDS011;53853;51.982;5.928;2022-07-01T00:23:49;9.77;;;8.82;;
66946;SDS011;53853;51.982;5.928;2022-07-01T00:26:19;13.57;;;12.38;;
66946;SDS011;53853;51.982;5.928;2022-07-01T00:28:48;17.52;;;15.80;;
66946;SDS011;53853;51.982;5.928;2022-07-01T00:31:21;13.13;;;11.93;;
66946;SDS011;53853;51.982;5.928;2022-07-01T00:33:51;14.48;;;13.05;;
66946;SDS011;53853;51.982;5.928;2022-07-01T00:36:21;11.65;;;10.15;;
66946;SDS011;53853;51.982;5.928;2022-07-01T00:38:51;12.55;;;11.30;;
66946;SDS011;53853;51.982;5.928;2022-07-01T00:41:21;13.65;;;12.25;;
66946;SDS011;53853;51.982;5.928;2022-07-01T00:43:51;14.75;;;13.35;;
66946;SDS011;53853;51.982;5.928;2022-07-01T00:46:25;16.33;;;14.75;;
66946;SDS011;53853;51.982;5.928;2022-07-01T00:48:56;15.45;;;13.27;;
66946;SDS011;53853;51.982;5.928;2022-07-01T00:51:28;14.48;;;12.15;;
66946;SDS011;53853;51.982;5.928;2022-07-01T00:53:58;13.57;;;12.02;;
66946;SDS011;53853;51.982;5.928;2022-07-01T00:56:29;11.18;;;10.07;;
66946;SDS011;53853;51.982;5.928;2022-07-01T00:58:59;17.67;;;16.08;;
66946;SDS011;53853;51.982;5.928;2022-07-01T01:01:32;19.38;;;17.48;;
66946;SDS011;53853;51.982;5.928;2022-07-01T01:04:02;18.17;;;16.45;;
66946;SDS011;53853;51.982;5.928;2022-07-01T01:06:33;15.75;;;14.15;;
66946;SDS011;53853;51.982;5.928;2022-07-01T01:09:03;14.98;;;13.57;;
66946;SDS011;53853;51.982;5.928;2022-07-01T01:11:33;22.98;;;20.50;;
66946;SDS011;53853;51.982;5.928;2022-07-01T01:14:03;23.38;;;21.05;;
66946;SDS011;53853;51.982;5.928;2022-07-01T01:16:35;18.52;;;16.70;;
66946;SDS011;53853;51.982;5.928;2022-07-01T01:19:05;23.95;;;20.98;;
66946;SDS011;53853;51.982;5.928;2022-07-01T01:21:38;26.35;;;23.60;;
66946;SDS011;53853;51.982;5.928;2022-07-01T01:24:11;28.58;;;25.48;;
66946;SDS011;53853;51.982;5.928;2022-07-01T01:26:40;33.60;;;30.02;;
66946;SDS011;53853;51.982;5.928;2022-07-01T01:29:10;35.17;;;30.77;;
66946;SDS011;53853;51.982;5.928;2022-07-01T01:31:40;25.10;;;22.52;;
66946;SDS011;53853;51.982;5.928;2022-07-01T01:34:10;30.10;;;26.70;;
66946;SDS011;53853;51.982;5.928;2022-07-01T01:36:43;34.55;;;30.88;;
66946;SDS011;53853;51.982;5.928;2022-07-01T01:39:13;34.13;;;30.17;;
66946;SDS011;53853;51.982;5.928;2022-07-01T01:41:43;37.75;;;30.75;;
66946;SDS011;53853;51.982;5.928;2022-07-01T01:44:13;31.63;;;28.30;;
66946;SDS011;53853;51.982;5.928;2022-07-01T01:46:44;33.40;;;29.50;;
66946;SDS011;53853;51.982;5.928;2022-07-01T01:49:14;41.95;;;34.50;;
66946;SDS011;53853;51.982;5.928;2022-07-01T01:51:46;35.75;;;32.13;;
66946;SDS011;53853;51.982;5.928;2022-07-01T01:54:16;35.65;;;31.92;;
66946;SDS011;53853;51.982;5.928;2022-07-01T01:56:46;35.53;;;31.00;;
66946;SDS011;53853;51.982;5.928;2022-07-01T01:59:16;41.03;;;35.38;;
66946;SDS011;53853;51.982;5.928;2022-07-01T02:01:46;38.55;;;34.38;;
66946;SDS011;53853;51.982;5.928;2022-07-01T02:04:16;36.38;;;32.38;;
66946;SDS011;53853;51.982;5.928;2022-07-01T02:06:49;35.67;;;31.38;;
66946;SDS011;53853;51.982;5.928;2022-07-01T02:09:19;36.60;;;31.13;;
66946;SDS011;53853;51.982;5.928;2022-07-01T02:11:49;37.22;;;33.22;;
66946;SDS011;53853;51.982;5.928;2022-07-01T02:14:19;29.42;;;26.38;;
66946;SDS011;53853;51.982;5.928;2022-07-01T02:16:49;37.88;;;33.78;;
66946;SDS011;53853;51.982;5.928;2022-07-01T02:19:19;32.80;;;29.50;;
66946;SDS011;53853;51.982;5.928;2022-07-01T02:21:51;34.97;;;31.08;;
66946;SDS011;53853;51.982;5.928;2022-07-01T02:24:21;35.85;;;32.05;;
66946;SDS011;53853;51.982;5.928;2022-07-01T02:26:52;41.78;;;36.03;;
66946;SDS011;53853;51.982;5.928;2022-07-01T02:29:22;33.60;;;30.10;;
66946;SDS011;53853;51.982;5.928;2022-07-01T02:31:52;33.75;;;30.13;;
66946;SDS011;53853;51.982;5.928;2022-07-01T02:34:22;38.88;;;34.67;;
66946;SDS011;53853;51.982;5.928;2022-07-01T02:36:54;35.88;;;32.05;;
66946;SDS011;53853;51.982;5.928;2022-07-01T02:39:24;32.70;;;29.45;;
66946;SDS011;53853;51.982;5.928;2022-07-01T02:41:54;35.47;;;31.63;;
66946;SDS011;53853;51.982;5.928;2022-07-01T02:44:37;35.30;;;31.60;;
66946;SDS011;53853;51.982;5.928;2022-07-01T02:47:07;29.80;;;26.70;;
66946;SDS011;53853;51.982;5.928;2022-07-01T02:49:37;34.92;;;31.30;;
66946;SDS011;53853;51.982;5.928;2022-07-01T02:52:10;32.42;;;29.02;;
66946;SDS011;53853;51.982;5.928;2022-07-01T02:54:41;38.35;;;32.47;;
66946;SDS011;53853;51.982;5.928;2022-07-01T02:57:11;37.05;;;32.83;;
66946;SDS011;53853;51.982;5.928;2022-07-01T02:59:41;31.55;;;28.20;;
66946;SDS011;53853;51.982;5.928;2022-07-01T03:02:10;27.85;;;24.95;;
66946;SDS011;53853;51.982;5.928;2022-07-01T03:04:40;26.58;;;23.67;;
66946;SDS011;53853;51.982;5.928;2022-07-01T03:07:13;34.33;;;30.83;;
66946;SDS011;53853;51.982;5.928;2022-07-01T03:09:43;30.80;;;27.50;;
66946;SDS011;53853;51.982;5.928;2022-07-01T03:12:13;35.35;;;31.75;;
66946;SDS011;53853;51.982;5.928;2022-07-01T03:15:01;30.63;;;26.55;;
66946;SDS011;53853;51.982;5.928;2022-07-01T03:17:33;33.53;;;30.20;;
66946;SDS011;53853;51.982;5.928;2022-07-01T03:20:05;32.45;;;27.45;;
66946;SDS011;53853;51.982;5.928;2022-07-01T03:22:38;31.63;;;28.23;;
66946;SDS011;53853;51.982;5.928;2022-07-01T03:25:09;32.85;;;29.40;;
66946;SDS011;53853;51.982;5.928;2022-07-01T03:27:39;35.83;;;30.90;;
66946;SDS011;53853;51.982;5.928;2022-07-01T03:30:11;34.20;;;30.50;;
66946;SDS011;53853;51.982;5.928;2022-07-01T03:32:43;29.80;;;26.55;;
66946;SDS011;53853;51.982;5.928;2022-07-01T03:35:14;32.60;;;29.27;;
66946;SDS011;53853;51.982;5.928;2022-07-01T03:37:59;30.80;;;27.45;;
66946;SDS011;53853;51.982;5.928;2022-07-01T03:40:29;32.00;;;28.30;;
66946;SDS011;53853;51.982;5.928;2022-07-01T03:42:58;36.70;;;32.70;;
66946;SDS011;53853;51.982;5.928;2022-07-01T03:45:28;34.47;;;29.70;;
66946;SDS011;53853;51.982;5.928;2022-07-01T03:47:59;32.35;;;28.80;;
66946;SDS011;53853;51.982;5.928;2022-07-01T03:50:29;29.55;;;26.60;;
66946;SDS011;53853;51.982;5.928;2022-07-01T03:53:01;34.80;;;31.00;;
66946;SDS011;53853;51.982;5.928;2022-07-01T03:55:44;37.72;;;32.00;;
66946;SDS011;53853;51.982;5.928;2022-07-01T03:58:13;39.00;;;33.20;;
66946;SDS011;53853;51.982;5.928;2022-07-01T04:00:43;40.63;;;33.67;;
66946;SDS011;53853;51.982;5.928;2022-07-01T04:03:13;32.53;;;28.98;;
66946;SDS011;53853;51.982;5.928;2022-07-01T04:05:43;36.35;;;30.02;;
66946;SDS011;53853;51.982;5.928;2022-07-01T04:08:15;34.30;;;30.60;;
66946;SDS011;53853;51.982;5.928;2022-07-01T04:10:45;36.17;;;30.83;;
66946;SDS011;53853;51.982;5.928;2022-07-01T04:13:19;27.15;;;24.05;;
66946;SDS011;53853;51.982;5.928;2022-07-01T04:15:49;30.77;;;27.45;;
66946;SDS011;53853;51.982;5.928;2022-07-01T04:18:19;31.25;;;26.95;;
66946;SDS011;53853;51.982;5.928;2022-07-01T04:20:49;34.03;;;30.30;;
66946;SDS011;53853;51.982;5.928;2022-07-01T04:23:34;28.85;;;24.33;;
66946;SDS011;53853;51.982;5.928;2022-07-01T04:26:04;34.13;;;29.25;;
66946;SDS011;53853;51.982;5.928;2022-07-01T04:28:34;30.05;;;25.63;;
66946;SDS011;53853;51.982;5.928;2022-07-01T04:31:04;32.22;;;26.50;;
66946;SDS011;53853;51.982;5.928;2022-07-01T04:33:34;32.80;;;28.00;;
66946;SDS011;53853;51.982;5.928;2022-07-01T04:36:04;33.30;;;28.38;;
66946;SDS011;53853;51.982;5.928;2022-07-01T04:38:37;26.75;;;23.55;;
66946;SDS011;53853;51.982;5.928;2022-07-01T04:41:07;33.45;;;27.00;;
66946;SDS011;53853;51.982;5.928;2022-07-01T04:43:49;21.52;;;19.05;;
66946;SDS011;53853;51.982;5.928;2022-07-01T04:46:19;34.25;;;28.90;;
66946;SDS011;53853;51.982;5.928;2022-07-01T04:48:49;30.50;;;26.30;;
66946;SDS011;53853;51.982;5.928;2022-07-01T04:51:18;32.47;;;25.55;;
66946;SDS011;53853;51.982;5.928;2022-07-01T04:53:51;29.98;;;25.27;;
66946;SDS011;53853;51.982;5.928;2022-07-01T04:56:21;31.70;;;27.90;;
66946;SDS011;53853;51.982;5.928;2022-07-01T04:58:52;35.92;;;27.20;;
66946;SDS011;53853;51.982;5.928;2022-07-01T05:01:22;29.58;;;23.98;;
66946;SDS011;53853;51.982;5.928;2022-07-01T05:03:53;27.70;;;22.90;;
66946;SDS011;53853;51.982;5.928;2022-07-01T05:06:23;29.48;;;25.17;;
66946;SDS011;53853;51.982;5.928;2022-07-01T05:08:56;30.48;;;25.67;;
66946;SDS011;53853;51.982;5.928;2022-07-01T05:11:26;27.75;;;24.45;;
66946;SDS011;53853;51.982;5.928;2022-07-01T05:13:56;24.90;;;21.17;;
66946;SDS011;53853;51.982;5.928;2022-07-01T05:16:25;33.92;;;24.70;;
66946;SDS011;53853;51.982;5.928;2022-07-01T05:18:55;31.75;;;25.10;;
66946;SDS011;53853;51.982;5.928;2022-07-01T05:21:38;23.60;;;20.58;;
66946;SDS011;53853;51.982;5.928;2022-07-01T05:24:22;24.70;;;20.83;;
66946;SDS011;53853;51.982;5.928;2022-07-01T05:26:54;34.75;;;25.05;;
66946;SDS011;53853;51.982;5.928;2022-07-01T05:29:24;26.77;;;22.95;;
66946;SDS011;53853;51.982;5.928;2022-07-01T05:31:54;31.23;;;24.60;;
66946;SDS011;53853;51.982;5.928;2022-07-01T05:34:23;26.77;;;22.55;;
66946;SDS011;53853;51.982;5.928;2022-07-01T05:36:53;24.58;;;20.85;;
66946;SDS011;53853;51.982;5.928;2022-07-01T05:39:26;24.00;;;20.73;;
66946;SDS011;53853;51.982;5.928;2022-07-01T05:41:56;34.42;;;24.02;;
66946;SDS011;53853;51.982;5.928;2022-07-01T05:44:26;26.80;;;22.35;;
66946;SDS011;53853;51.982;5.928;2022-07-01T05:46:56;24.92;;;19.92;;
66946;SDS011;53853;51.982;5.928;2022-07-01T05:49:25;33.63;;;24.95;;
66946;SDS011;53853;51.982;5.928;2022-07-01T05:51:55;31.00;;;24.63;;
66946;SDS011;53853;51.982;5.928;2022-07-01T05:54:28;29.02;;;24.08;;
66946;SDS011;53853;51.982;5.928;2022-07-01T05:56:58;30.83;;;25.00;;
66946;SDS011;53853;51.982;5.928;2022-07-01T05:59:27;28.52;;;24.25;;
66946;SDS011;53853;51.982;5.928;2022-07-01T06:01:57;27.35;;;21.95;;
66946;SDS011;53853;51.982;5.928;2022-07-01T06:04:27;31.42;;;23.17;;
66946;SDS011;53853;51.982;5.928;2022-07-01T06:06:57;28.52;;;23.95;;
66946;SDS011;53853;51.982;5.928;2022-07-01T06:09:30;26.25;;;21.80;;
66946;SDS011;53853;51.982;5.928;2022-07-01T06:12:00;30.02;;;22.52;;
66946;SDS011;53853;51.982;5.928;2022-07-01T06:14:29;23.98;;;20.63;;
66946;SDS011;53853;51.982;5.928;2022-07-01T06:16:59;26.70;;;21.90;;
66946;SDS011;53853;51.982;5.928;2022-07-01T06:19:29;27.52;;;22.25;;
66946;SDS011;53853;51.982;5.928;2022-07-01T06:21:59;30.30;;;23.15;;
66946;SDS011;53853;51.982;5.928;2022-07-01T06:24:32;28.55;;;22.15;;
66946;SDS011;53853;51.982;5.928;2022-07-01T06:27:02;28.60;;;23.20;;
66946;SDS011;53853;51.982;5.928;2022-07-01T06:29:32;31.05;;;22.48;;
66946;SDS011;53853;51.982;5.928;2022-07-01T06:32:03;27.45;;;21.33;;
66946;SDS011;53853;51.982;5.928;2022-07-01T06:34:34;28.73;;;24.85;;
66946;SDS011;53853;51.982;5.928;2022-07-01T06:37:05;25.00;;;20.58;;
66946;SDS011;53853;51.982;5.928;2022-07-01T06:39:37;26.25;;;21.80;;
66946;SDS011;53853;51.982;5.928;2022-07-01T06:42:07;28.45;;;21.20;;
66946;SDS011;53853;51.982;5.928;2022-07-01T06:44:37;24.67;;;20.17;;
66946;SDS011;53853;51.982;5.928;2022-07-01T06:47:07;27.98;;;22.67;;
66946;SDS011;53853;51.982;5.928;2022-07-01T06:49:37;23.77;;;20.02;;
66946;SDS011;53853;51.982;5.928;2022-07-01T06:52:07;31.50;;;23.05;;
66946;SDS011;53853;51.982;5.928;2022-07-01T06:54:40;27.60;;;21.95;;
66946;SDS011;53853;51.982;5.928;2022-07-01T06:57:10;24.15;;;21.17;;
66946;SDS011;53853;51.982;5.928;2022-07-01T06:59:40;26.63;;;20.80;;
66946;SDS011;53853;51.982;5.928;2022-07-01T07:02:10;28.38;;;22.17;;
66946;SDS011;53853;51.982;5.928;2022-07-01T07:04:40;26.98;;;20.90;;
66946;SDS011;53853;51.982;5.928;2022-07-01T07:07:10;27.80;;;22.50;;
66946;SDS011;53853;51.982;5.928;2022-07-01T07:09:42;29.17;;;22.60;;
66946;SDS011;53853;51.982;5.928;2022-07-01T07:12:12;21.15;;;17.48;;
66946;SDS011;53853;51.982;5.928;2022-07-01T07:14:42;29.40;;;21.88;;
66946;SDS011;53853;51.982;5.928;2022-07-01T07:17:12;25.27;;;20.55;;
66946;SDS011;53853;51.982;5.928;2022-07-01T07:19:42;26.13;;;20.63;;
66946;SDS011;53853;51.982;5.928;2022-07-01T07:22:11;32.22;;;23.70;;
66946;SDS011;53853;51.982;5.928;2022-07-01T07:24:44;20.63;;;17.70;;
66946;SDS011;53853;51.982;5.928;2022-07-01T07:27:14;24.02;;;18.73;;
66946;SDS011;53853;51.982;5.928;2022-07-01T07:29:44;26.15;;;21.08;;
66946;SDS011;53853;51.982;5.928;2022-07-01T07:32:13;25.42;;;20.38;;
66946;SDS011;53853;51.982;5.928;2022-07-01T07:34:43;19.83;;;17.10;;
66946;SDS011;53853;51.982;5.928;2022-07-01T07:37:13;26.63;;;19.52;;
66946;SDS011;53853;51.982;5.928;2022-07-01T07:39:46;21.65;;;18.08;;
66946;SDS011;53853;51.982;5.928;2022-07-01T07:42:16;27.48;;;19.52;;
66946;SDS011;53853;51.982;5.928;2022-07-01T07:44:45;20.98;;;17.10;;
66946;SDS011;53853;51.982;5.928;2022-07-01T07:47:15;21.98;;;17.27;;
66946;SDS011;53853;51.982;5.928;2022-07-01T07:49:45;20.80;;;16.38;;
66946;SDS011;53853;51.982;5.928;2022-07-01T07:52:15;22.70;;;18.65;;
66946;SDS011;53853;51.982;5.928;2022-07-01T07:54:47;22.73;;;17.00;;
66946;SDS011;53853;51.982;5.928;2022-07-01T07:57:17;25.35;;;17.10;;
66946;SDS011;53853;51.982;5.928;2022-07-01T07:59:47;20.52;;;15.95;;
66946;SDS011;53853;51.982;5.928;2022-07-01T08:02:17;16.58;;;14.10;;
66946;SDS011;53853;51.982;5.928;2022-07-01T08:04:47;15.55;;;13.57;;
66946;SDS011;53853;51.982;5.928;2022-07-01T08:07:17;14.75;;;12.65;;
66946;SDS011;53853;51.982;5.928;2022-07-01T08:09:49;13.88;;;11.50;;
66946;SDS011;53853;51.982;5.928;2022-07-01T08:12:19;16.95;;;13.75;;
66946;SDS011;53853;51.982;5.928;2022-07-01T08:14:51;22.48;;;15.25;;
66946;SDS011;53853;51.982;5.928;2022-07-01T08:17:21;17.95;;;15.25;;
66946;SDS011;53853;51.982;5.928;2022-07-01T08:19:52;16.63;;;14.07;;
66946;SDS011;53853;51.982;5.928;2022-07-01T08:22:21;21.20;;;15.40;;
66946;SDS011;53853;51.982;5.928;2022-07-01T08:24:54;17.73;;;13.10;;
66946;SDS011;53853;51.982;5.928;2022-07-01T08:27:24;16.35;;;10.95;;
66946;SDS011;53853;51.982;5.928;2022-07-01T08:29:54;16.85;;;9.95;;
66946;SDS011;53853;51.982;5.928;2022-07-01T08:32:24;13.77;;;11.57;;
66946;SDS011;53853;51.982;5.928;2022-07-01T08:34:56;14.23;;;9.90;;
66946;SDS011;53853;51.982;5.928;2022-07-01T08:37:26;11.57;;;8.55;;
66946;SDS011;53853;51.982;5.928;2022-07-01T08:39:59;14.20;;;9.30;;
66946;SDS011;53853;51.982;5.928;2022-07-01T08:42:29;10.35;;;7.00;;
66946;SDS011;53853;51.982;5.928;2022-07-01T08:44:59;12.75;;;8.30;;
66946;SDS011;53853;51.982;5.928;2022-07-01T08:47:29;8.63;;;6.63;;
66946;SDS011;53853;51.982;5.928;2022-07-01T08:49:59;10.45;;;6.07;;
66946;SDS011;53853;51.982;5.928;2022-07-01T08:52:29;8.63;;;6.00;;
66946;SDS011;53853;51.982;5.928;2022-07-01T08:55:03;9.95;;;5.13;;
66946;SDS011;53853;51.982;5.928;2022-07-01T08:57:34;12.57;;;6.18;;
66946;SDS011;53853;51.982;5.928;2022-07-01T09:00:04;7.18;;;4.25;;
66946;SDS011;53853;51.982;5.928;2022-07-01T09:05:28;8.05;;;5.00;;
66946;SDS011;53853;51.982;5.928;2022-07-01T09:08:00;8.82;;;4.03;;
66946;SDS011;53853;51.982;5.928;2022-07-01T09:10:35;5.45;;;3.03;;
66946;SDS011;53853;51.982;5.928;2022-07-01T09:13:05;7.03;;;4.68;;
66946;SDS011;53853;51.982;5.928;2022-07-01T09:15:37;6.60;;;3.33;;
66946;SDS011;53853;51.982;5.928;2022-07-01T09:18:09;8.35;;;4.30;;
66946;SDS011;53853;51.982;5.928;2022-07-01T09:20:42;6.90;;;3.78;;
66946;SDS011;53853;51.982;5.928;2022-07-01T09:23:14;5.15;;;2.53;;
66946;SDS011;53853;51.982;5.928;2022-07-01T09:25:48;6.35;;;2.42;;
66946;SDS011;53853;51.982;5.928;2022-07-01T09:30:50;6.47;;;2.63;;
66946;SDS011;53853;51.982;5.928;2022-07-01T09:33:21;5.35;;;2.28;;
66946;SDS011;53853;51.982;5.928;2022-07-01T09:35:53;6.45;;;2.72;;
66946;SDS011;53853;51.982;5.928;2022-07-01T09:38:25;6.53;;;1.95;;
66946;SDS011;53853;51.982;5.928;2022-07-01T09:40:58;7.30;;;2.53;;
66946;SDS011;53853;51.982;5.928;2022-07-01T09:43:30;8.35;;;4.63;;
66946;SDS011;53853;51.982;5.928;2022-07-01T09:46:01;6.50;;;2.45;;
66946;SDS011;53853;51.982;5.928;2022-07-01T09:48:42;6.03;;;2.15;;
66946;SDS011;53853;51.982;5.928;2022-07-01T09:51:14;6.13;;;2.00;;
66946;SDS011;53853;51.982;5.928;2022-07-01T09:53:44;3.78;;;1.58;;
66946;SDS011;53853;51.982;5.928;2022-07-01T09:56:17;5.95;;;2.25;;
66946;SDS011;53853;51.982;5.928;2022-07-01T10:01:17;5.68;;;2.33;;
66946;SDS011;53853;51.982;5.928;2022-07-01T10:03:48;5.60;;;1.95;;
66946;SDS011;53853;51.982;5.928;2022-07-01T10:06:29;4.38;;;2.63;;
66946;SDS011;53853;51.982;5.928;2022-07-01T10:09:11;7.60;;;2.53;;
66946;SDS011;53853;51.982;5.928;2022-07-01T10:12:07;4.15;;;2.05;;
66946;SDS011;53853;51.982;5.928;2022-07-01T10:15:03;6.03;;;1.70;;
66946;SDS011;53853;51.982;5.928;2022-07-01T10:17:37;5.45;;;2.85;;
66946;SDS011;53853;51.982;5.928;2022-07-01T10:20:12;2.67;;;1.27;;
66946;SDS011;53853;51.982;5.928;2022-07-01T10:22:44;3.85;;;2.30;;
66946;SDS011;53853;51.982;5.928;2022-07-01T10:25:30;4.45;;;2.28;;
66946;SDS011;53853;51.982;5.928;2022-07-01T10:28:23;6.63;;;1.77;;
66946;SDS011;53853;51.982;5.928;2022-07-01T10:30:59;3.22;;;1.60;;
66946;SDS011;53853;51.982;5.928;2022-07-01T10:33:31;6.13;;;1.80;;
66946;SDS011;53853;51.982;5.928;2022-07-01T10:36:10;6.10;;;2.10;;
66946;SDS011;53853;51.982;5.928;2022-07-01T10:44:36;4.25;;;1.58;;
66946;SDS011;53853;51.982;5.928;2022-07-01T10:47:06;5.15;;;2.08;;
66946;SDS011;53853;51.982;5.928;2022-07-01T10:52:23;4.00;;;1.70;;
66946;SDS011;53853;51.982;5.928;2022-07-01T10:54:54;4.32;;;1.58;;
66946;SDS011;53853;51.982;5.928;2022-07-01T10:57:27;4.47;;;1.43;;
66946;SDS011;53853;51.982;5.928;2022-07-01T11:03:08;3.83;;;1.40;;
66946;SDS011;53853;51.982;5.928;2022-07-01T11:05:40;4.55;;;1.77;;
66946;SDS011;53853;51.982;5.928;2022-07-01T11:08:11;6.88;;;2.10;;
66946;SDS011;53853;51.982;5.928;2022-07-01T11:10:41;4.88;;;1.90;;
66946;SDS011;53853;51.982;5.928;2022-07-01T11:13:12;3.65;;;1.50;;
66946;SDS011;53853;51.982;5.928;2022-07-01T11:15:47;4.45;;;1.83;;
66946;SDS011;53853;51.982;5.928;2022-07-01T11:18:17;3.20;;;1.83;;
66946;SDS011;53853;51.982;5.928;2022-07-01T11:20:48;4.55;;;1.95;;
66946;SDS011;53853;51.982;5.928;2022-07-01T11:23:20;4.97;;;2.08;;
66946;SDS011;53853;51.982;5.928;2022-07-01T11:25:50;5.00;;;1.58;;
66946;SDS011;53853;51.982;5.928;2022-07-01T11:28:20;5.00;;;1.50;;
66946;SDS011;53853;51.982;5.928;2022-07-01T11:31:00;4.15;;;1.65;;
66946;SDS011;53853;51.982;5.928;2022-07-01T11:33:29;3.22;;;1.20;;
66946;SDS011;53853;51.982;5.928;2022-07-01T11:35:59;4.20;;;1.45;;
66946;SDS011;53853;51.982;5.928;2022-07-01T11:38:45;8.45;;;5.50;;
66946;SDS011;53853;51.982;5.928;2022-07-01T11:41:34;6.40;;;2.30;;
66946;SDS011;53853;51.982;5.928;2022-07-01T11:44:04;5.43;;;1.63;;
66946;SDS011;53853;51.982;5.928;2022-07-01T11:46:36;4.95;;;1.67;;
66946;SDS011;53853;51.982;5.928;2022-07-01T11:49:10;5.72;;;1.58;;
66946;SDS011;53853;51.982;5.928;2022-07-01T11:51:43;3.53;;;1.30;;
66946;SDS011;53853;51.982;5.928;2022-07-01T11:54:23;4.40;;;1.75;;
66946;SDS011;53853;51.982;5.928;2022-07-01T11:56:54;4.90;;;1.70;;
66946;SDS011;53853;51.982;5.928;2022-07-01T11:59:35;5.32;;;1.88;;
66946;SDS011;53853;51.982;5.928;2022-07-01T12:02:08;3.88;;;1.35;;
66946;SDS011;53853;51.982;5.928;2022-07-01T12:04:40;3.00;;;1.50;;
66946;SDS011;53853;51.982;5.928;2022-07-01T12:07:11;8.50;;;1.92;;
66946;SDS011;53853;51.982;5.928;2022-07-01T12:09:42;5.07;;;1.38;;
66946;SDS011;53853;51.982;5.928;2022-07-01T12:12:15;3.03;;;1.10;;
66946;SDS011;53853;51.982;5.928;2022-07-01T12:14:50;3.25;;;1.20;;
66946;SDS011;53853;51.982;5.928;2022-07-01T12:17:23;4.45;;;1.60;;
66946;SDS011;53853;51.982;5.928;2022-07-01T12:19:54;4.03;;;1.50;;
66946;SDS011;53853;51.982;5.928;2022-07-01T12:22:25;7.70;;;1.67;;
66946;SDS011;53853;51.982;5.928;2022-07-01T12:25:04;5.38;;;1.30;;
66946;SDS011;53853;51.982;5.928;2022-07-01T12:27:36;6.43;;;1.70;;
66946;SDS011;53853;51.982;5.928;2022-07-01T12:30:10;4.22;;;1.17;;
66946;SDS011;53853;51.982;5.928;2022-07-01T12:33:07;4.22;;;1.15;;
66946;SDS011;53853;51.982;5.928;2022-07-01T12:35:39;5.70;;;1.45;;
66946;SDS011;53853;51.982;5.928;2022-07-01T12:38:14;7.20;;;2.33;;
66946;SDS011;53853;51.982;5.928;2022-07-01T12:40:44;6.78;;;1.65;;
66946;SDS011;53853;51.982;5.928;2022-07-01T12:43:24;3.42;;;1.27;;
66946;SDS011;53853;51.982;5.928;2022-07-01T12:45:58;5.30;;;1.40;;
66946;SDS011;53853;51.982;5.928;2022-07-01T12:48:31;4.05;;;1.30;;
66946;SDS011;53853;51.982;5.928;2022-07-01T12:51:17;2.85;;;1.23;;
66946;SDS011;53853;51.982;5.928;2022-07-01T12:53:47;5.05;;;2.08;;
66946;SDS011;53853;51.982;5.928;2022-07-01T12:56:23;11.45;;;6.93;;
66946;SDS011;53853;51.982;5.928;2022-07-01T12:58:54;5.03;;;2.70;;
66946;SDS011;53853;51.982;5.928;2022-07-01T13:01:24;4.72;;;2.08;;
66946;SDS011;53853;51.982;5.928;2022-07-01T13:03:57;6.10;;;1.60;;
66946;SDS011;53853;51.982;5.928;2022-07-01T13:06:27;2.88;;;1.20;;
66946;SDS011;53853;51.982;5.928;2022-07-01T13:08:56;4.00;;;1.40;;
66946;SDS011;53853;51.982;5.928;2022-07-01T13:11:26;3.17;;;1.30;;
66946;SDS011;53853;51.982;5.928;2022-07-01T13:13:56;3.33;;;1.20;;
66946;SDS011;53853;51.982;5.928;2022-07-01T13:16:26;5.32;;;1.63;;
66946;SDS011;53853;51.982;5.928;2022-07-01T13:18:59;7.10;;;1.63;;
66946;SDS011;53853;51.982;5.928;2022-07-01T13:21:29;4.93;;;1.37;;
66946;SDS011;53853;51.982;5.928;2022-07-01T13:23:59;2.42;;;1.50;;
66946;SDS011;53853;51.982;5.928;2022-07-01T13:26:29;3.60;;;1.20;;
66946;SDS011;53853;51.982;5.928;2022-07-01T13:28:59;3.63;;;2.05;;
66946;SDS011;53853;51.982;5.928;2022-07-01T13:31:29;4.80;;;1.70;;
66946;SDS011;53853;51.982;5.928;2022-07-01T13:34:01;6.43;;;1.73;;
66946;SDS011;53853;51.982;5.928;2022-07-01T13:36:31;3.28;;;1.30;;
66946;SDS011;53853;51.982;5.928;2022-07-01T13:39:01;2.53;;;1.48;;
66946;SDS011;53853;51.982;5.928;2022-07-01T13:41:31;5.07;;;1.70;;
66946;SDS011;53853;51.982;5.928;2022-07-01T13:44:01;6.72;;;2.22;;
66946;SDS011;53853;51.982;5.928;2022-07-01T13:46:31;6.22;;;2.08;;
66946;SDS011;53853;51.982;5.928;2022-07-01T13:49:04;3.13;;;1.35;;
66946;SDS011;53853;51.982;5.928;2022-07-01T13:51:34;5.57;;;1.70;;
66946;SDS011;53853;51.982;5.928;2022-07-01T13:54:04;3.65;;;1.50;;
66946;SDS011;53853;51.982;5.928;2022-07-01T13:56:34;3.42;;;1.48;;
66946;SDS011;53853;51.982;5.928;2022-07-01T13:59:04;4.50;;;2.40;;
66946;SDS011;53853;51.982;5.928;2022-07-01T14:01:34;4.38;;;1.45;;
66946;SDS011;53853;51.982;5.928;2022-07-01T14:04:06;2.80;;;1.13;;
66946;SDS011;53853;51.982;5.928;2022-07-01T14:06:37;2.67;;;1.33;;
66946;SDS011;53853;51.982;5.928;2022-07-01T14:09:07;3.45;;;0.90;;
66946;SDS011;53853;51.982;5.928;2022-07-01T14:11:37;1.92;;;0.90;;
66946;SDS011;53853;51.982;5.928;2022-07-01T14:14:07;4.18;;;1.30;;
66946;SDS011;53853;51.982;5.928;2022-07-01T14:16:37;2.50;;;0.77;;
66946;SDS011;53853;51.982;5.928;2022-07-01T14:19:10;4.22;;;1.15;;
66946;SDS011;53853;51.982;5.928;2022-07-01T14:21:40;4.03;;;1.33;;
66946;SDS011;53853;51.982;5.928;2022-07-01T14:24:10;4.85;;;1.30;;
66946;SDS011;53853;51.982;5.928;2022-07-01T14:26:40;4.60;;;1.65;;
66946;SDS011;53853;51.982;5.928;2022-07-01T14:29:10;7.85;;;1.95;;
66946;SDS011;53853;51.982;5.928;2022-07-01T14:31:40;5.93;;;1.40;;
66946;SDS011;53853;51.982;5.928;2022-07-01T14:34:12;2.33;;;1.02;;
66946;SDS011;53853;51.982;5.928;2022-07-01T14:36:42;5.43;;;1.77;;
66946;SDS011;53853;51.982;5.928;2022-07-01T14:39:12;3.33;;;1.08;;
66946;SDS011;53853;51.982;5.928;2022-07-01T14:41:42;2.67;;;0.88;;
66946;SDS011;53853;51.982;5.928;2022-07-01T14:44:15;5.55;;;0.90;;
66946;SDS011;53853;51.982;5.928;2022-07-01T14:46:45;3.78;;;1.00;;
66946;SDS011;53853;51.982;5.928;2022-07-01T14:49:19;3.83;;;1.00;;
66946;SDS011;53853;51.982;5.928;2022-07-01T14:51:49;2.85;;;0.93;;
66946;SDS011;53853;51.982;5.928;2022-07-01T14:54:19;3.25;;;0.90;;
66946;SDS011;53853;51.982;5.928;2022-07-01T14:56:49;2.30;;;0.93;;
66946;SDS011;53853;51.982;5.928;2022-07-01T14:59:19;2.85;;;1.00;;
66946;SDS011;53853;51.982;5.928;2022-07-01T15:01:49;1.88;;;0.90;;
66946;SDS011;53853;51.982;5.928;2022-07-01T15:04:24;3.00;;;0.85;;
66946;SDS011;53853;51.982;5.928;2022-07-01T15:06:54;3.45;;;0.93;;
66946;SDS011;53853;51.982;5.928;2022-07-01T15:09:24;4.15;;;1.15;;
66946;SDS011;53853;51.982;5.928;2022-07-01T15:11:54;2.67;;;0.90;;
66946;SDS011;53853;51.982;5.928;2022-07-01T15:14:24;2.88;;;1.05;;
66946;SDS011;53853;51.982;5.928;2022-07-01T15:16:55;2.85;;;1.25;;
66946;SDS011;53853;51.982;5.928;2022-07-01T15:19:27;4.45;;;1.13;;